Time;durP1;ratioP1;P1;durP2;ratioP2;P2;SDS_P1;SDS_P2;PMS_P1;PMS_P2;Temp;Humidity;BMP_temperature;BMP_pressure;BME280_temperature;BME280_humidity;BME280_pressure;Samples;Min_cycle;Max_cycle;Signal;HPM_P1;HPM_P2
2022/10/30 00:01:57;;;;;;;0.65;0.63;;;;;;;;;;5072287;28;20102;-86
2022/10/30 00:04:26;;;;;;;1.13;1.05;;;;;;;;;;5072422;28;20118;-87
2022/10/30 00:06:52;;;;;;;1.65;1.55;;;;;;;;;;5072346;28;20052;-87
2022/10/30 00:09:19;;;;;;;1.55;1.52;;;;;;;;;;5072175;28;20491;-87
2022/10/30 00:11:45;;;;;;;2.33;2.22;;;;;;;;;;5072267;28;20052;-87
2022/10/30 00:14:12;;;;;;;1.45;1.35;;;;;;;;;;5071847;28;20052;-87
2022/10/30 00:16:39;;;;;;;1.23;0.80;;;;;;;;;;5072160;28;20098;-87
2022/10/30 00:19:05;;;;;;;1.05;1.02;;;;;;;;;;5071890;28;20053;-86
2022/10/30 00:21:33;;;;;;;1.80;1.40;;;;;;;;;;5071918;28;20056;-86
2022/10/30 00:24:00;;;;;;;0.82;0.82;;;;;;;;;;5072036;28;20078;-87
2022/10/30 00:26:26;;;;;;;1.10;1.02;;;;;;;;;;5071281;28;20458;-87
2022/10/30 00:28:54;;;;;;;1.52;1.42;;;;;;;;;;5071886;28;20049;-87
2022/10/30 00:31:20;;;;;;;2.35;2.20;;;;;;;;;;5071737;28;20102;-87
2022/10/30 00:33:48;;;;;;;1.92;1.30;;;;;;;;;;5071812;28;20488;-87
2022/10/30 00:36:15;;;;;;;1.55;1.45;;;;;;;;;;5071654;28;20056;-87
2022/10/30 00:38:43;;;;;;;1.65;1.55;;;;;;;;;;5072131;28;20121;-87
2022/10/30 00:41:13;;;;;;;1.67;1.58;;;;;;;;;;5071870;28;20447;-86
2022/10/30 00:43:40;;;;;;;3.83;0.93;;;;;;;;;;5071937;28;20049;-87
2022/10/30 00:46:08;;;;;;;1.20;1.20;;;;;;;;;;5071871;28;20044;-86
2022/10/30 00:48:35;;;;;;;1.00;0.98;;;;;;;;;;5072087;28;20084;-87
2022/10/30 00:51:02;;;;;;;1.60;1.50;;;;;;;;;;5071525;28;20071;-86
2022/10/30 00:53:29;;;;;;;1.50;1.40;;;;;;;;;;5071600;28;20550;-87
2022/10/30 00:55:59;;;;;;;2.83;2.72;;;;;;;;;;5073695;28;20048;-87
2022/10/30 00:58:27;;;;;;;1.38;1.27;;;;;;;;;;5064086;28;20095;-87
2022/10/30 01:00:55;;;;;;;1.38;1.27;;;;;;;;;;5055367;28;20386;-86
2022/10/30 01:03:22;;;;;;;7.50;3.58;;;;;;;;;;5054982;28;20044;-87
2022/10/30 01:05:50;;;;;;;1.38;1.27;;;;;;;;;;5071030;28;20052;-86
2022/10/30 01:08:16;;;;;;;0.30;0.30;;;;;;;;;;5075416;28;20052;-87
2022/10/30 01:10:43;;;;;;;1.67;1.58;;;;;;;;;;5074915;28;20551;-87
2022/10/30 01:13:11;;;;;;;0.80;0.75;;;;;;;;;;5074824;28;20098;-87
2022/10/30 01:15:40;;;;;;;0.80;0.80;;;;;;;;;;5075256;28;20099;-87
2022/10/30 01:18:22;;;;;;;1.58;1.48;;;;;;;;;;5074762;28;20101;-87
2022/10/30 01:21:01;;;;;;;1.23;0.85;;;;;;;;;;5075236;28;20049;-87
2022/10/30 01:23:32;;;;;;;1.92;1.52;;;;;;;;;;5074839;28;20049;-87
2022/10/30 01:25:59;;;;;;;;;;;;;;;;;;5074422;28;20040;-87
2022/10/30 01:28:34;;;;;;;0.70;0.70;;;;;;;;;;5074483;28;20372;-87
2022/10/30 01:31:04;;;;;;;0.95;0.93;;;;;;;;;;5073973;28;20381;-86
2022/10/30 01:33:37;;;;;;;0.85;0.85;;;;;;;;;;5074739;28;20052;-88
2022/10/30 01:36:08;;;;;;;0.40;0.40;;;;;;;;;;5074989;28;20049;-89
2022/10/30 01:38:36;;;;;;;0.95;0.82;;;;;;;;;;5074952;28;20455;-88
2022/10/30 01:41:02;;;;;;;2.58;2.50;;;;;;;;;;5075029;28;20192;-88
2022/10/30 01:43:29;;;;;;;1.42;1.35;;;;;;;;;;5074718;28;20048;-88
2022/10/30 01:46:10;;;;;;;0.80;0.80;;;;;;;;;;5074539;28;20106;-88
2022/10/30 01:48:48;;;;;;;0.52;0.52;;;;;;;;;;5072052;28;20098;-88
2022/10/30 01:51:19;;;;;;;1.20;1.13;;;;;;;;;;5074255;28;20044;-88
2022/10/30 01:53:51;;;;;;;0.85;0.85;;;;;;;;;;5074696;28;20052;-88
2022/10/30 01:56:21;;;;;;;1.30;1.27;;;;;;;;;;5073491;28;20101;-88
2022/10/30 01:58:51;;;;;;;1.38;1.08;;;;;;;;;;5074672;28;20053;-88
2022/10/30 02:01:18;;;;;;;2.85;1.00;;;;;;;;;;5074582;28;20102;-88
2022/10/30 02:03:46;;;;;;;1.90;1.80;;;;;;;;;;5074174;28;20113;-88
2022/10/30 02:06:13;;;;;;;1.15;1.05;;;;;;;;;;5073808;28;20057;-88
2022/10/30 02:08:39;;;;;;;0.82;0.82;;;;;;;;;;5074283;28;20558;-88
2022/10/30 02:11:06;;;;;;;0.85;0.85;;;;;;;;;;5074083;28;20082;-89
2022/10/30 02:13:32;;;;;;;1.85;1.75;;;;;;;;;;5073918;28;20056;-88
2022/10/30 02:15:59;;;;;;;2.63;2.45;;;;;;;;;;5074134;28;20048;-87
2022/10/30 02:18:26;;;;;;;4.80;4.50;;;;;;;;;;5073957;28;20052;-87
2022/10/30 02:20:53;;;;;;;0.50;0.50;;;;;;;;;;5061404;28;20578;-87
2022/10/30 02:23:21;;;;;;;1.42;1.33;;;;;;;;;;5053720;28;20447;-88
2022/10/30 02:25:47;;;;;;;0.77;0.75;;;;;;;;;;5053395;28;20049;-88
2022/10/30 02:28:14;;;;;;;1.63;1.52;;;;;;;;;;5054107;28;20053;-87
2022/10/30 02:30:42;;;;;;;0.60;0.60;;;;;;;;;;5053835;28;20052;-87
2022/10/30 02:33:09;;;;;;;1.05;0.65;;;;;;;;;;5053472;28;20048;-87
2022/10/30 02:35:36;;;;;;;0.52;0.52;;;;;;;;;;5053698;28;20053;-87
2022/10/30 02:38:03;;;;;;;0.90;0.90;;;;;;;;;;5053812;28;20045;-88
2022/10/30 02:40:30;;;;;;;0.80;0.80;;;;;;;;;;5053327;28;20049;-88
2022/10/30 02:42:56;;;;;;;2.05;1.95;;;;;;;;;;5053776;28;20103;-88
2022/10/30 02:45:23;;;;;;;0.77;0.77;;;;;;;;;;5053208;28;20492;-88
2022/10/30 02:47:49;;;;;;;2.80;2.13;;;;;;;;;;5053399;28;20048;-87
2022/10/30 02:50:16;;;;;;;4.03;0.90;;;;;;;;;;5053089;28;20040;-87
2022/10/30 02:52:42;;;;;;;1.02;1.02;;;;;;;;;;5053381;28;20110;-87
2022/10/30 02:55:10;;;;;;;1.95;1.85;;;;;;;;;;5053489;28;20041;-87
2022/10/30 02:57:37;;;;;;;1.25;0.82;;;;;;;;;;5053489;28;20048;-88
2022/10/30 03:00:04;;;;;;;1.15;1.05;;;;;;;;;;5070208;28;20067;-88
2022/10/30 03:02:30;;;;;;;1.10;1.08;;;;;;;;;;5075283;28;20488;-88
2022/10/30 03:04:57;;;;;;;1.05;1.00;;;;;;;;;;5073150;28;20106;-87
2022/10/30 03:07:23;;;;;;;1.60;1.50;;;;;;;;;;5073167;28;20060;-88
2022/10/30 03:09:50;;;;;;;1.15;1.13;;;;;;;;;;5073159;28;20052;-87
2022/10/30 03:12:18;;;;;;;1.08;1.05;;;;;;;;;;5072677;28;20080;-87
2022/10/30 03:14:45;;;;;;;1.23;1.13;;;;;;;;;;5053084;28;20049;-88
2022/10/30 03:17:11;;;;;;;1.88;1.77;;;;;;;;;;5052485;28;20385;-88
2022/10/30 03:19:39;;;;;;;3.28;1.95;;;;;;;;;;5052868;28;20045;-88
2022/10/30 03:22:06;;;;;;;6.53;1.90;;;;;;;;;;5053050;28;20114;-87
2022/10/30 03:24:32;;;;;;;2.72;2.53;;;;;;;;;;5052615;28;20543;-87
2022/10/30 03:26:59;;;;;;;1.30;1.20;;;;;;;;;;5052835;28;20095;-87
2022/10/30 03:29:28;;;;;;;1.42;1.33;;;;;;;;;;5052588;28;20052;-87
2022/10/30 03:31:55;;;;;;;1.63;1.52;;;;;;;;;;5052282;28;20041;-87
2022/10/30 03:34:21;;;;;;;0.85;0.85;;;;;;;;;;5052417;28;20497;-87
2022/10/30 03:36:48;;;;;;;2.35;2.15;;;;;;;;;;5052640;28;20049;-87
2022/10/30 03:39:14;;;;;;;1.08;1.08;;;;;;;;;;5052424;28;20053;-87
2022/10/30 03:41:42;;;;;;;1.02;1.02;;;;;;;;;;5052680;28;20095;-87
2022/10/30 03:44:08;;;;;;;1.27;1.17;;;;;;;;;;5052733;28;20057;-87
2022/10/30 03:46:36;;;;;;;0.80;0.80;;;;;;;;;;5052357;28;20520;-88
2022/10/30 03:49:03;;;;;;;1.77;1.65;;;;;;;;;;5052106;28;20040;-88
2022/10/30 03:51:29;;;;;;;1.75;1.67;;;;;;;;;;5052521;28;20099;-88
2022/10/30 03:53:56;;;;;;;3.05;2.95;;;;;;;;;;5052347;28;20488;-88
2022/10/30 03:56:22;;;;;;;2.55;2.35;;;;;;;;;;5052098;28;20102;-87
2022/10/30 03:58:49;;;;;;;1.45;1.35;;;;;;;;;;5052144;28;20452;-87
2022/10/30 04:01:15;;;;;;;2.05;1.95;;;;;;;;;;5052078;28;20056;-87
2022/10/30 04:03:43;;;;;;;2.00;1.88;;;;;;;;;;5052289;28;20052;-87
2022/10/30 04:06:09;;;;;;;1.77;1.70;;;;;;;;;;5052499;28;20102;-87
2022/10/30 04:08:36;;;;;;;0.40;0.32;;;;;;;;;;5052139;28;20053;-87
2022/10/30 04:11:03;;;;;;;1.85;1.75;;;;;;;;;;5051077;28;20079;-88
2022/10/30 04:13:29;;;;;;;1.70;1.60;;;;;;;;;;5051252;28;20060;-88
2022/10/30 04:15:56;;;;;;;2.60;2.00;;;;;;;;;;5051796;28;20170;-87
2022/10/30 04:18:22;;;;;;;1.52;1.42;;;;;;;;;;5052077;28;20115;-88
2022/10/30 04:20:50;;;;;;;0.98;0.98;;;;;;;;;;5051945;28;20481;-88
2022/10/30 04:23:17;;;;;;;0.93;0.70;;;;;;;;;;5052004;28;20048;-87
2022/10/30 04:25:44;;;;;;;1.20;1.10;;;;;;;;;;5067124;28;20117;-88
2022/10/30 04:28:11;;;;;;;3.10;2.92;;;;;;;;;;5072092;28;20056;-88
2022/10/30 04:30:38;;;;;;;2.67;2.10;;;;;;;;;;5074007;28;20053;-88
2022/10/30 04:33:06;;;;;;;2.05;1.90;;;;;;;;;;5075616;28;20492;-87
2022/10/30 04:35:35;;;;;;;1.30;1.20;;;;;;;;;;5076105;28;20048;-88
2022/10/30 04:38:04;;;;;;;1.15;1.05;;;;;;;;;;5075705;28;20060;-87
2022/10/30 04:40:32;;;;;;;2.00;1.90;;;;;;;;;;5075763;28;20048;-88
2022/10/30 04:42:59;;;;;;;0.55;0.52;;;;;;;;;;5075633;28;20119;-88
2022/10/30 04:45:26;;;;;;;8.70;1.77;;;;;;;;;;5075903;28;20121;-89
2022/10/30 04:47:52;;;;;;;1.00;0.95;;;;;;;;;;5075523;28;20045;-88
2022/10/30 04:50:19;;;;;;;1.83;1.73;;;;;;;;;;5075526;28;20565;-88
2022/10/30 04:52:45;;;;;;;0.50;0.50;;;;;;;;;;5075467;28;20044;-88
2022/10/30 04:55:13;;;;;;;2.97;2.78;;;;;;;;;;5075666;28;20114;-88
2022/10/30 04:57:40;;;;;;;2.13;1.98;;;;;;;;;;5075387;28;20488;-88
2022/10/30 05:00:08;;;;;;;0.43;0.43;;;;;;;;;;5075659;28;20056;-89
2022/10/30 05:02:34;;;;;;;1.38;1.27;;;;;;;;;;5075118;28;20447;-88
2022/10/30 05:05:01;;;;;;;2.80;2.55;;;;;;;;;;5075401;28;20503;-89
2022/10/30 05:07:27;;;;;;;1.67;1.58;;;;;;;;;;5075541;28;20041;-88
2022/10/30 05:09:54;;;;;;;1.85;1.75;;;;;;;;;;5075246;28;20056;-87
2022/10/30 05:12:21;;;;;;;1.42;1.33;;;;;;;;;;5075123;28;20555;-87
2022/10/30 05:14:48;;;;;;;1.90;1.80;;;;;;;;;;5075274;28;20458;-87
2022/10/30 05:17:15;;;;;;;2.15;2.05;;;;;;;;;;5074613;28;20138;-87
2022/10/30 05:19:41;;;;;;;1.45;1.35;;;;;;;;;;5074899;28;20044;-87
2022/10/30 05:22:09;;;;;;;1.33;1.33;;;;;;;;;;5075348;28;20044;-88
2022/10/30 05:24:35;;;;;;;1.13;1.02;;;;;;;;;;5074603;28;20412;-87
2022/10/30 05:27:02;;;;;;;1.02;1.02;;;;;;;;;;5075219;28;20209;-88
2022/10/30 05:29:29;;;;;;;0.85;0.85;;;;;;;;;;5074617;28;20090;-87
2022/10/30 05:31:56;;;;;;;1.67;1.58;;;;;;;;;;5074712;28;20106;-87
2022/10/30 05:34:24;;;;;;;0.68;0.68;;;;;;;;;;5074612;28;20045;-87
2022/10/30 05:36:50;;;;;;;2.30;0.85;;;;;;;;;;5074542;28;20048;-87
2022/10/30 05:39:16;;;;;;;1.17;1.10;;;;;;;;;;5074765;28;20114;-87
2022/10/30 05:41:43;;;;;;;2.85;0.63;;;;;;;;;;5073853;28;20044;-88
2022/10/30 05:44:09;;;;;;;2.45;2.33;;;;;;;;;;5074492;28;20836;-88
2022/10/30 05:46:37;;;;;;;2.25;2.15;;;;;;;;;;5074543;28;20045;-88
2022/10/30 05:49:04;;;;;;;1.13;1.10;;;;;;;;;;5074841;28;20044;-89
2022/10/30 05:51:30;;;;;;;2.50;0.90;;;;;;;;;;5074386;28;20044;-88
2022/10/30 05:53:57;;;;;;;0.52;0.52;;;;;;;;;;5074493;28;20052;-88
2022/10/30 05:56:23;;;;;;;3.08;2.97;;;;;;;;;;5074160;28;20048;-88
2022/10/30 05:58:50;;;;;;;3.15;1.52;;;;;;;;;;5074958;28;20396;-86
2022/10/30 06:01:16;;;;;;;0.98;0.98;;;;;;;;;;5074331;28;20090;-89
2022/10/30 06:03:44;;;;;;;1.55;1.45;;;;;;;;;;5067841;28;20044;-88
2022/10/30 06:06:11;;;;;;;1.05;1.05;;;;;;;;;;5058394;28;20454;-88
2022/10/30 06:08:37;;;;;;;0.43;0.28;;;;;;;;;;5073130;28;20048;-88
2022/10/30 06:11:04;;;;;;;4.75;2.67;;;;;;;;;;5073590;28;20102;-88
2022/10/30 06:13:30;;;;;;;1.42;1.33;;;;;;;;;;5063448;28;20443;-89
2022/10/30 06:15:57;;;;;;;1.90;1.80;;;;;;;;;;5056485;28;20049;-88
2022/10/30 06:18:26;;;;;;;1.27;1.17;;;;;;;;;;5064920;28;20049;-88
2022/10/30 06:20:55;;;;;;;2.00;1.90;;;;;;;;;;5063209;28;20041;-88
2022/10/30 06:23:22;;;;;;;2.35;1.85;;;;;;;;;;5054410;28;20098;-88
2022/10/30 06:25:48;;;;;;;2.10;2.00;;;;;;;;;;5073576;28;20106;-88
2022/10/30 06:28:15;;;;;;;2.67;2.55;;;;;;;;;;5054693;28;20492;-89
2022/10/30 06:30:41;;;;;;;2.47;2.33;;;;;;;;;;5064543;28;20052;-89
2022/10/30 06:33:09;;;;;;;2.50;2.30;;;;;;;;;;5053158;28;20554;-87
2022/10/30 06:35:36;;;;;;;1.60;1.50;;;;;;;;;;5054523;28;20060;-89
2022/10/30 06:38:04;;;;;;;1.70;1.38;;;;;;;;;;5073270;28;20129;-87
2022/10/30 06:40:30;;;;;;;2.63;2.47;;;;;;;;;;5069147;28;20045;-88
2022/10/30 06:42:57;;;;;;;1.83;1.73;;;;;;;;;;5053697;28;20091;-88
2022/10/30 06:45:24;;;;;;;3.22;1.67;;;;;;;;;;5053151;28;20481;-89
2022/10/30 06:47:51;;;;;;;1.77;1.67;;;;;;;;;;5053159;28;20051;-89
2022/10/30 06:50:18;;;;;;;2.03;1.92;;;;;;;;;;5052920;28;20127;-89
2022/10/30 06:52:45;;;;;;;1.55;1.50;;;;;;;;;;5055012;28;20578;-89
2022/10/30 06:55:13;;;;;;;0.82;0.82;;;;;;;;;;5068352;28;20117;-90
2022/10/30 06:57:39;;;;;;;2.72;2.60;;;;;;;;;;5073795;28;20044;-91
2022/10/30 07:00:07;;;;;;;1.92;1.83;;;;;;;;;;5073619;28;20052;-91
2022/10/30 07:02:34;;;;;;;1.48;1.38;;;;;;;;;;5061962;28;20484;-89
2022/10/30 07:05:00;;;;;;;1.23;1.20;;;;;;;;;;5072755;28;20102;-89
2022/10/30 07:07:27;;;;;;;2.70;2.03;;;;;;;;;;5067464;28;20406;-91
2022/10/30 07:09:53;;;;;;;1.70;1.60;;;;;;;;;;5063775;28;20053;-89
2022/10/30 07:12:21;;;;;;;1.20;1.17;;;;;;;;;;5065434;28;20048;-89
2022/10/30 07:14:48;;;;;;;1.77;1.67;;;;;;;;;;5061039;28;20480;-89
2022/10/30 07:17:14;;;;;;;2.35;2.22;;;;;;;;;;5057411;28;20041;-92
2022/10/30 07:19:41;;;;;;;2.90;2.78;;;;;;;;;;5064308;28;20048;-91
2022/10/30 07:22:07;;;;;;;2.08;1.85;;;;;;;;;;5065051;28;20455;-91
2022/10/30 07:24:34;;;;;;;2.75;2.55;;;;;;;;;;5057812;28;20056;-90
2022/10/30 07:27:00;;;;;;;2.58;2.47;;;;;;;;;;5069799;28;20125;-89
2022/10/30 07:29:28;;;;;;;6.40;3.17;;;;;;;;;;5073299;28;20063;-90
2022/10/30 07:31:55;;;;;;;2.55;2.10;;;;;;;;;;5072235;28;20090;-87
2022/10/30 07:34:21;;;;;;;4.82;4.47;;;;;;;;;;5067231;28;20041;-89
2022/10/30 07:36:47;;;;;;;2.30;2.20;;;;;;;;;;5053095;28;20106;-87
2022/10/30 07:39:14;;;;;;;3.50;3.38;;;;;;;;;;5060849;28;20094;-86
2022/10/30 07:41:40;;;;;;;3.35;3.15;;;;;;;;;;5065783;28;20053;-86
2022/10/30 07:44:07;;;;;;;2.90;2.70;;;;;;;;;;5071260;28;20056;-87
2022/10/30 07:46:35;;;;;;;2.08;1.98;;;;;;;;;;5067591;28;20049;-86
2022/10/30 07:49:01;;;;;;;3.58;3.35;;;;;;;;;;5050662;28;20049;-87
2022/10/30 07:51:28;;;;;;;3.38;2.25;;;;;;;;;;5050355;28;20057;-88
2022/10/30 07:53:54;;;;;;;2.88;2.67;;;;;;;;;;5060797;28;20105;-86
2022/10/30 07:56:21;;;;;;;3.50;3.30;;;;;;;;;;5070609;28;20094;-86
2022/10/30 07:58:47;;;;;;;2.72;2.45;;;;;;;;;;5070604;28;20492;-87
2022/10/30 08:01:14;;;;;;;3.55;3.33;;;;;;;;;;5061220;28;20041;-87
2022/10/30 08:03:42;;;;;;;2.95;2.45;;;;;;;;;;5053550;28;20121;-87
2022/10/30 08:06:08;;;;;;;3.28;3.08;;;;;;;;;;5056590;28;20118;-87
2022/10/30 08:08:35;;;;;;;3.58;3.30;;;;;;;;;;5060324;28;20086;-87
2022/10/30 08:11:01;;;;;;;2.55;2.35;;;;;;;;;;5075535;28;20048;-89
2022/10/30 08:13:28;;;;;;;5.20;2.97;;;;;;;;;;5061049;28;20175;-88
2022/10/30 08:15:54;;;;;;;3.20;2.90;;;;;;;;;;5074340;28;20098;-90
2022/10/30 08:18:21;;;;;;;4.07;3.17;;;;;;;;;;5074589;28;20053;-87
2022/10/30 08:20:50;;;;;;;2.90;2.63;;;;;;;;;;5071379;28;20053;-87
2022/10/30 08:23:18;;;;;;;3.95;2.25;;;;;;;;;;5065166;28;20485;-88
2022/10/30 08:25:45;;;;;;;3.33;3.10;;;;;;;;;;5066577;28;20049;-87
2022/10/30 08:28:11;;;;;;;2.00;1.90;;;;;;;;;;5071617;28;20098;-88
2022/10/30 08:30:38;;;;;;;3.97;3.55;;;;;;;;;;5067294;28;20098;-87
2022/10/30 08:33:06;;;;;;;2.55;2.35;;;;;;;;;;5069807;28;20045;-87
2022/10/30 08:35:33;;;;;;;3.58;3.25;;;;;;;;;;5073672;28;20565;-87
2022/10/30 08:38:01;;;;;;;4.18;2.95;;;;;;;;;;5070269;28;20083;-87
2022/10/30 08:40:28;;;;;;;4.18;3.90;;;;;;;;;;5060047;28;20092;-87
2022/10/30 08:43:06;;;;;;;6.05;5.30;;;;;;;;;;5058193;28;20057;-89
2022/10/30 08:45:32;;;;;;;3.97;3.75;;;;;;;;;;5054145;28;20515;-88
2022/10/30 08:48:02;;;;;;;3.42;3.20;;;;;;;;;;5055128;28;20052;-90
2022/10/30 08:50:30;;;;;;;3.70;3.47;;;;;;;;;;5054706;28;20102;-89
2022/10/30 08:52:59;;;;;;;3.33;3.13;;;;;;;;;;5054286;28;20123;-88
2022/10/30 08:55:27;;;;;;;4.03;3.72;;;;;;;;;;5054338;28;20057;-88
2022/10/30 08:57:54;;;;;;;5.80;5.50;;;;;;;;;;5054704;28;20049;-87
2022/10/30 09:00:25;;;;;;;6.82;6.47;;;;;;;;;;5054133;28;20079;-87
2022/10/30 09:02:51;;;;;;;4.38;4.05;;;;;;;;;;5062118;28;20053;-87
2022/10/30 09:05:18;;;;;;;6.03;5.55;;;;;;;;;;5069843;28;20041;-87
2022/10/30 09:07:44;;;;;;;4.47;4.15;;;;;;;;;;5071000;28;20068;-87
2022/10/30 09:10:11;;;;;;;5.55;5.25;;;;;;;;;;5074034;28;20565;-86
2022/10/30 09:12:39;;;;;;;5.32;4.70;;;;;;;;;;5069971;28;20053;-87
2022/10/30 09:15:06;;;;;;;4.63;4.22;;;;;;;;;;5053650;28;20489;-87
2022/10/30 09:17:33;;;;;;;3.65;3.50;;;;;;;;;;5053711;28;20044;-87
2022/10/30 09:19:59;;;;;;;6.85;6.45;;;;;;;;;;5065895;28;20110;-87
2022/10/30 09:22:26;;;;;;;5.60;5.18;;;;;;;;;;5053831;28;20102;-88
2022/10/30 09:24:52;;;;;;;5.32;4.78;;;;;;;;;;5062387;28;20117;-87
2022/10/30 09:27:19;;;;;;;4.43;4.10;;;;;;;;;;5065651;28;20099;-88
2022/10/30 09:29:46;;;;;;;5.82;5.43;;;;;;;;;;5061354;28;20052;-87
2022/10/30 09:32:13;;;;;;;5.53;5.13;;;;;;;;;;5056602;28;20102;-87
2022/10/30 09:34:39;;;;;;;4.43;4.13;;;;;;;;;;5053075;28;20041;-88
2022/10/30 09:37:07;;;;;;;5.70;4.10;;;;;;;;;;5055414;28;20045;-87
2022/10/30 09:39:33;;;;;;;6.15;5.60;;;;;;;;;;5062790;28;20447;-87
2022/10/30 09:42:06;;;;;;;6.45;5.18;;;;;;;;;;5067149;28;20071;-87
2022/10/30 09:44:37;;;;;;;3.83;2.88;;;;;;;;;;5052959;28;20052;-87
2022/10/30 09:47:10;;;;;;;3.85;3.65;;;;;;;;;;5053746;28;20052;-88
2022/10/30 09:49:58;;;;;;;5.53;5.13;;;;;;;;;;5053092;28;20102;-88
2022/10/30 09:52:28;;;;;;;3.83;3.60;;;;;;;;;;5048327;28;20488;-88
2022/10/30 09:55:13;;;;;;;6.03;5.45;;;;;;;;;;5053239;28;20048;-87
2022/10/30 09:57:44;;;;;;;5.82;5.53;;;;;;;;;;5043226;28;20099;-88
2022/10/30 10:00:12;;;;;;;4.18;3.88;;;;;;;;;;5053361;28;20044;-87
2022/10/30 10:02:46;;;;;;;5.72;5.20;;;;;;;;;;5053433;28;20045;-87
2022/10/30 10:05:15;;;;;;;4.78;4.47;;;;;;;;;;5053429;28;20060;-88
2022/10/30 10:07:43;;;;;;;6.30;4.25;;;;;;;;;;5053751;28;20057;-88
2022/10/30 10:10:13;;;;;;;4.18;3.88;;;;;;;;;;5053486;28;20106;-88
2022/10/30 10:12:40;;;;;;;5.82;5.32;;;;;;;;;;5053379;28;20095;-88
2022/10/30 10:15:11;;;;;;;14.07;3.80;;;;;;;;;;5053158;28;20045;-88
2022/10/30 10:17:41;;;;;;;4.93;4.63;;;;;;;;;;5053210;28;20487;-89
2022/10/30 10:20:15;;;;;;;6.50;6.00;;;;;;;;;;5053412;28;20685;-88
2022/10/30 10:22:47;;;;;;;5.65;5.22;;;;;;;;;;5052928;28;20045;-87
2022/10/30 10:25:14;;;;;;;4.88;4.57;;;;;;;;;;5052247;28;20056;-88
2022/10/30 10:27:49;;;;;;;4.82;4.43;;;;;;;;;;5058173;28;20075;-87
2022/10/30 10:30:17;;;;;;;3.85;3.55;;;;;;;;;;5053149;28;20106;-88
2022/10/30 10:33:03;;;;;;;5.75;5.22;;;;;;;;;;5055611;28;20041;-88
2022/10/30 10:35:54;;;;;;;5.15;4.85;;;;;;;;;;5053259;28;20049;-88
2022/10/30 10:38:26;;;;;;;5.22;4.82;;;;;;;;;;5064577;28;20044;-88
2022/10/30 10:40:58;;;;;;;5.63;5.03;;;;;;;;;;5072756;28;20554;-88
2022/10/30 10:43:31;;;;;;;5.53;5.03;;;;;;;;;;5064598;28;20094;-87
2022/10/30 10:46:00;;;;;;;4.82;4.47;;;;;;;;;;5072584;28;20412;-88
2022/10/30 10:48:50;;;;;;;5.80;4.45;;;;;;;;;;5073355;28;20052;-87
2022/10/30 10:51:20;;;;;;;5.50;5.10;;;;;;;;;;5067872;28;20106;-88
2022/10/30 10:53:48;;;;;;;4.35;3.97;;;;;;;;;;5064398;28;20488;-88
2022/10/30 10:56:15;;;;;;;6.15;5.65;;;;;;;;;;5052443;28;20052;-88
2022/10/30 10:58:46;;;;;;;6.65;6.18;;;;;;;;;;5052886;28;20049;-88
2022/10/30 11:01:14;;;;;;;8.93;7.93;;;;;;;;;;5052043;28;20057;-88
2022/10/30 11:03:45;;;;;;;8.77;8.07;;;;;;;;;;5052281;28;20098;-88
2022/10/30 11:06:18;;;;;;;4.93;4.32;;;;;;;;;;5052455;28;20045;-88
2022/10/30 11:08:46;;;;;;;10.18;9.13;;;;;;;;;;5052016;28;20099;-88
2022/10/30 11:11:12;;;;;;;14.75;12.00;;;;;;;;;;5070384;28;20098;-87
2022/10/30 11:13:39;;;;;;;16.80;10.40;;;;;;;;;;5065952;28;20099;-89
2022/10/30 11:16:09;;;;;;;6.53;5.72;;;;;;;;;;5052728;28;20052;-89
2022/10/30 11:18:36;;;;;;;11.80;7.40;;;;;;;;;;5052200;28;20052;-89
2022/10/30 11:21:04;;;;;;;6.10;5.43;;;;;;;;;;5052626;28;20057;-89
2022/10/30 11:23:32;;;;;;;5.95;5.55;;;;;;;;;;5052540;28;20045;-89
2022/10/30 11:26:00;;;;;;;7.75;6.45;;;;;;;;;;5052290;28;20059;-89
2022/10/30 11:28:38;;;;;;;7.75;7.15;;;;;;;;;;5053039;28;20086;-89
2022/10/30 11:31:18;;;;;;;9.90;9.40;;;;;;;;;;5052123;28;20053;-89
2022/10/30 11:33:46;;;;;;;10.93;10.23;;;;;;;;;;5050030;28;20049;-90
2022/10/30 11:36:14;;;;;;;6.43;5.85;;;;;;;;;;5052340;28;20048;-89
2022/10/30 11:38:40;;;;;;;7.70;7.20;;;;;;;;;;5056676;28;20094;-90
2022/10/30 11:41:09;;;;;;;7.30;6.90;;;;;;;;;;5071624;28;20097;-89
2022/10/30 11:43:36;;;;;;;7.20;6.65;;;;;;;;;;5067938;28;20126;-89
2022/10/30 11:46:08;;;;;;;5.47;5.07;;;;;;;;;;5051973;28;20075;-89
2022/10/30 11:48:35;;;;;;;6.38;5.85;;;;;;;;;;5052315;28;20063;-90
2022/10/30 11:51:02;;;;;;;6.57;6.07;;;;;;;;;;5054736;28;20048;-89
2022/10/30 11:53:31;;;;;;;6.07;5.55;;;;;;;;;;5060654;28;20114;-90
2022/10/30 11:55:58;;;;;;;5.85;5.28;;;;;;;;;;5054223;28;20057;-89
2022/10/30 11:58:29;;;;;;;6.55;6.05;;;;;;;;;;5052518;28;20049;-89
2022/10/30 12:01:00;;;;;;;6.65;6.05;;;;;;;;;;5062711;28;20114;-89
2022/10/30 12:03:28;;;;;;;6.28;5.72;;;;;;;;;;5051309;28;20037;-89
2022/10/30 12:06:06;;;;;;;6.32;5.47;;;;;;;;;;5051884;28;20052;-89
2022/10/30 12:08:33;;;;;;;6.78;6.38;;;;;;;;;;5053437;28;20052;-90
2022/10/30 12:11:00;;;;;;;5.53;5.22;;;;;;;;;;5071755;28;20105;-89
2022/10/30 12:13:31;;;;;;;8.60;7.90;;;;;;;;;;5070979;28;20121;-89
2022/10/30 12:16:05;;;;;;;5.80;5.07;;;;;;;;;;5051740;28;20056;-89
2022/10/30 12:18:32;;;;;;;8.13;7.55;;;;;;;;;;5051428;28;20647;-89
2022/10/30 12:20:59;;;;;;;5.97;5.53;;;;;;;;;;5051920;28;20056;-89
2022/10/30 12:23:27;;;;;;;6.93;6.32;;;;;;;;;;5051387;28;20040;-89
2022/10/30 12:25:54;;;;;;;7.93;7.32;;;;;;;;;;5051242;28;20052;-89
2022/10/30 12:28:21;;;;;;;6.32;5.82;;;;;;;;;;5051302;28;20049;-90
2022/10/30 12:30:53;;;;;;;7.78;7.28;;;;;;;;;;5071214;28;20052;-90
2022/10/30 12:33:22;;;;;;;5.70;5.40;;;;;;;;;;5071288;28;20052;-89
2022/10/30 12:35:51;;;;;;;7.50;7.07;;;;;;;;;;5070396;28;20098;-89
2022/10/30 12:38:21;;;;;;;8.73;7.93;;;;;;;;;;5069282;28;20053;-88
2022/10/30 12:40:54;;;;;;;5.22;4.82;;;;;;;;;;5057756;28;20102;-89
2022/10/30 12:43:24;;;;;;;5.10;4.80;;;;;;;;;;5062366;28;20041;-89
2022/10/30 12:45:52;;;;;;;6.28;5.88;;;;;;;;;;5059270;28;20094;-89
2022/10/30 12:48:23;;;;;;;7.05;6.55;;;;;;;;;;5061479;28;20048;-89
2022/10/30 12:50:55;;;;;;;6.30;5.70;;;;;;;;;;5062868;28;20060;-89
2022/10/30 12:53:26;;;;;;;7.82;7.43;;;;;;;;;;5063101;28;20052;-89
2022/10/30 12:55:55;;;;;;;8.55;7.90;;;;;;;;;;5054229;28;20057;-88
2022/10/30 12:58:24;;;;;;;5.85;5.35;;;;;;;;;;5054120;28;20099;-88
2022/10/30 13:00:56;;;;;;;7.30;6.78;;;;;;;;;;5064730;28;20049;-88
2022/10/30 13:03:26;;;;;;;8.57;7.90;;;;;;;;;;5062861;28;20450;-89
2022/10/30 13:05:54;;;;;;;8.63;7.90;;;;;;;;;;5053567;28;20095;-88
2022/10/30 13:08:24;;;;;;;7.97;7.38;;;;;;;;;;5053736;28;20454;-88
2022/10/30 13:10:52;;;;;;;7.35;6.75;;;;;;;;;;5064436;28;20493;-88
2022/10/30 13:13:20;;;;;;;7.82;7.32;;;;;;;;;;5063611;28;20462;-89
2022/10/30 13:15:48;;;;;;;6.57;6.18;;;;;;;;;;5062028;28;20458;-89
2022/10/30 13:18:17;;;;;;;7.53;7.15;;;;;;;;;;5063404;28;20060;-88
2022/10/30 13:20:54;;;;;;;8.77;8.18;;;;;;;;;;5054937;28;20049;-89
2022/10/30 13:23:23;;;;;;;6.90;6.47;;;;;;;;;;5062642;28;20102;-89
2022/10/30 13:25:55;;;;;;;7.80;7.40;;;;;;;;;;5057510;28;20504;-89
2022/10/30 13:28:24;;;;;;;8.93;8.32;;;;;;;;;;5053931;28;20053;-89
2022/10/30 13:30:56;;;;;;;8.15;7.43;;;;;;;;;;5070400;28;20053;-88
2022/10/30 13:33:27;;;;;;;7.15;6.70;;;;;;;;;;5073280;28;20057;-88
2022/10/30 13:35:56;;;;;;;8.48;7.88;;;;;;;;;;5057177;28;20497;-88
2022/10/30 13:38:34;;;;;;;7.30;6.60;;;;;;;;;;5053653;28;20053;-88
2022/10/30 13:41:06;;;;;;;9.27;8.48;;;;;;;;;;5070977;28;20053;-89
2022/10/30 13:43:38;;;;;;;8.15;7.55;;;;;;;;;;5059280;28;20071;-88
2022/10/30 13:46:11;;;;;;;10.20;9.27;;;;;;;;;;5054358;28;20049;-89
2022/10/30 13:48:45;;;;;;;7.82;7.30;;;;;;;;;;5054129;28;20053;-88
2022/10/30 13:51:21;;;;;;;8.27;7.78;;;;;;;;;;5053983;28;20463;-88
2022/10/30 13:53:49;;;;;;;6.38;5.78;;;;;;;;;;5054108;28;20107;-89
2022/10/30 13:56:17;;;;;;;8.63;7.95;;;;;;;;;;5054068;28;20175;-89
2022/10/30 13:58:46;;;;;;;8.88;8.18;;;;;;;;;;5053955;28;20515;-89
2022/10/30 14:01:17;;;;;;;7.10;6.65;;;;;;;;;;5053602;28;20114;-89
2022/10/30 14:03:50;;;;;;;9.52;7.32;;;;;;;;;;5052651;28;20123;-88
2022/10/30 14:06:23;;;;;;;6.75;6.13;;;;;;;;;;5053660;28;20517;-88
2022/10/30 14:08:54;;;;;;;6.35;5.95;;;;;;;;;;5053492;28;20103;-89
2022/10/30 14:11:20;;;;;;;9.93;9.07;;;;;;;;;;5053655;28;20447;-88
2022/10/30 14:13:53;;;;;;;7.07;6.47;;;;;;;;;;5053286;28;20099;-88
2022/10/30 14:16:34;;;;;;;8.00;7.30;;;;;;;;;;5059296;28;20052;-88
2022/10/30 14:19:03;;;;;;;5.85;5.35;;;;;;;;;;5073332;28;20060;-87
2022/10/30 14:21:31;;;;;;;6.57;6.10;;;;;;;;;;5073081;28;20060;-88
2022/10/30 14:24:05;;;;;;;7.57;7.07;;;;;;;;;;5071024;28;20049;-87
2022/10/30 14:26:31;;;;;;;6.32;5.75;;;;;;;;;;5052389;28;20098;-87
2022/10/30 14:28:58;;;;;;;7.07;6.50;;;;;;;;;;5059704;28;20101;-87
2022/10/30 14:31:35;;;;;;;13.82;7.47;;;;;;;;;;5069134;28;20111;-87
2022/10/30 14:34:03;;;;;;;5.97;5.57;;;;;;;;;;5053534;28;20091;-87
2022/10/30 14:36:47;;;;;;;6.18;5.78;;;;;;;;;;5070160;28;20052;-87
2022/10/30 14:39:29;;;;;;;8.23;7.63;;;;;;;;;;5071782;28;20455;-87
2022/10/30 14:42:00;;;;;;;6.68;6.22;;;;;;;;;;5053798;28;20174;-87
2022/10/30 14:44:48;;;;;;;9.00;8.50;;;;;;;;;;5061674;28;20048;-87
2022/10/30 14:47:29;;;;;;;8.82;8.32;;;;;;;;;;5052848;28;20045;-87
2022/10/30 14:50:00;;;;;;;6.38;4.82;;;;;;;;;;5050887;28;20504;-87
2022/10/30 14:52:36;;;;;;;6.07;5.75;;;;;;;;;;5052547;28;20444;-87